sensor_id;sensor_type;location;lat;lon;timestamp;pressure;altitude;pressure_sealevel;temperature;humidity
11395;BME280;5753;54.402;10.220;2023-04-29T00:00:12;101302.16;;;16.53;48.26
11395;BME280;5753;54.402;10.220;2023-04-29T00:02:39;101298.66;;;16.93;47.02
11395;BME280;5753;54.402;10.220;2023-04-29T00:05:05;101296.00;;;15.56;49.40
11395;BME280;5753;54.402;10.220;2023-04-29T00:07:31;101293.25;;;17.41;45.71
11395;BME280;5753;54.402;10.220;2023-04-29T00:09:58;101287.41;;;16.84;46.41
11395;BME280;5753;54.402;10.220;2023-04-29T00:12:24;101286.47;;;16.98;46.35
11395;BME280;5753;54.402;10.220;2023-04-29T00:14:51;101283.97;;;16.37;48.00
11395;BME280;5753;54.402;10.220;2023-04-29T00:17:17;101288.31;;;16.67;47.02
11395;BME280;5753;54.402;10.220;2023-04-29T00:19:43;101282.09;;;17.20;46.14
11395;BME280;5753;54.402;10.220;2023-04-29T00:22:10;101277.22;;;18.11;44.00
11395;BME280;5753;54.402;10.220;2023-04-29T00:24:36;101278.16;;;18.02;44.04
11395;BME280;5753;54.402;10.220;2023-04-29T00:27:02;101276.00;;;17.23;45.58
11395;BME280;5753;54.402;10.220;2023-04-29T00:29:28;101288.31;;;16.63;47.28
11395;BME280;5753;54.402;10.220;2023-04-29T00:31:54;101278.75;;;16.76;46.77
11395;BME280;5753;54.402;10.220;2023-04-29T00:34:21;101281.38;;;16.62;46.49
11395;BME280;5753;54.402;10.220;2023-04-29T00:36:47;101280.28;;;17.30;45.50
11395;BME280;5753;54.402;10.220;2023-04-29T00:39:14;101282.88;;;17.33;45.69
11395;BME280;5753;54.402;10.220;2023-04-29T00:41:40;101285.09;;;18.05;43.69
11395;BME280;5753;54.402;10.220;2023-04-29T00:44:06;101300.97;;;18.78;41.62
11395;BME280;5753;54.402;10.220;2023-04-29T00:46:32;101300.75;;;18.03;43.33
11395;BME280;5753;54.402;10.220;2023-04-29T00:48:59;101311.63;;;18.54;42.00
11395;BME280;5753;54.402;10.220;2023-04-29T00:51:26;101305.31;;;18.78;41.54
11395;BME280;5753;54.402;10.220;2023-04-29T00:53:53;101309.63;;;18.83;41.18
11395;BME280;5753;54.402;10.220;2023-04-29T00:56:19;101313.47;;;18.46;41.95
11395;BME280;5753;54.402;10.220;2023-04-29T00:58:46;101312.59;;;18.45;41.64
11395;BME280;5753;54.402;10.220;2023-04-29T01:01:18;101318.78;;;18.32;41.41
11395;BME280;5753;54.402;10.220;2023-04-29T01:03:45;101328.44;;;18.21;41.65
11395;BME280;5753;54.402;10.220;2023-04-29T01:09:12;101335.44;;;18.17;42.17
11395;BME280;5753;54.402;10.220;2023-04-29T01:14:17;101339.94;;;17.91;43.64
11395;BME280;5753;54.402;10.220;2023-04-29T01:16:50;101329.75;;;17.39;44.97
11395;BME280;5753;54.402;10.220;2023-04-29T01:19:49;101330.41;;;17.85;44.00
11395;BME280;5753;54.402;10.220;2023-04-29T01:22:15;101325.91;;;18.10;43.22
11395;BME280;5753;54.402;10.220;2023-04-29T01:24:46;101329.63;;;17.73;44.39
11395;BME280;5753;54.402;10.220;2023-04-29T01:27:56;101327.47;;;18.34;42.99
11395;BME280;5753;54.402;10.220;2023-04-29T01:38:55;101329.66;;;17.63;44.37
11395;BME280;5753;54.402;10.220;2023-04-29T01:41:44;101326.91;;;17.91;43.61
11395;BME280;5753;54.402;10.220;2023-04-29T01:44:21;101324.25;;;18.03;43.26
11395;BME280;5753;54.402;10.220;2023-04-29T01:46:52;101326.22;;;17.49;44.08
11395;BME280;5753;54.402;10.220;2023-04-29T01:49:28;101320.97;;;17.61;43.87
11395;BME280;5753;54.402;10.220;2023-04-29T01:51:55;101322.50;;;18.02;43.21
11395;BME280;5753;54.402;10.220;2023-04-29T01:54:21;101315.19;;;16.44;46.41
11395;BME280;5753;54.402;10.220;2023-04-29T01:56:48;101322.41;;;18.14;43.09
11395;BME280;5753;54.402;10.220;2023-04-29T01:59:14;101327.16;;;18.72;41.78
11395;BME280;5753;54.402;10.220;2023-04-29T02:01:40;101331.28;;;18.92;41.43
11395;BME280;5753;54.402;10.220;2023-04-29T02:04:06;101330.72;;;18.65;41.59
11395;BME280;5753;54.402;10.220;2023-04-29T02:06:32;101334.81;;;18.92;41.07
11395;BME280;5753;54.402;10.220;2023-04-29T02:08:58;101335.22;;;18.45;42.05
11395;BME280;5753;54.402;10.220;2023-04-29T02:11:24;101346.16;;;18.86;41.48
11395;BME280;5753;54.402;10.220;2023-04-29T02:13:51;101347.81;;;18.97;40.87
11395;BME280;5753;54.402;10.220;2023-04-29T02:16:17;101351.50;;;18.74;41.29
11395;BME280;5753;54.402;10.220;2023-04-29T02:18:43;101353.09;;;18.92;40.86
11395;BME280;5753;54.402;10.220;2023-04-29T02:21:09;101349.16;;;18.41;41.87
11395;BME280;5753;54.402;10.220;2023-04-29T02:23:37;101348.34;;;18.33;42.20
11395;BME280;5753;54.402;10.220;2023-04-29T02:26:03;101347.31;;;18.55;41.88
11395;BME280;5753;54.402;10.220;2023-04-29T02:28:34;101349.94;;;18.53;41.69
11395;BME280;5753;54.402;10.220;2023-04-29T02:31:00;101355.09;;;18.64;41.68
11395;BME280;5753;54.402;10.220;2023-04-29T02:33:26;101352.91;;;19.09;41.05
11395;BME280;5753;54.402;10.220;2023-04-29T02:35:52;101349.41;;;19.10;40.94
11395;BME280;5753;54.402;10.220;2023-04-29T02:38:19;101353.66;;;19.18;40.83
11395;BME280;5753;54.402;10.220;2023-04-29T02:40:45;101354.69;;;19.04;41.36
11395;BME280;5753;54.402;10.220;2023-04-29T02:43:12;101353.84;;;19.02;41.59
11395;BME280;5753;54.402;10.220;2023-04-29T02:45:38;101358.56;;;18.66;42.12
11395;BME280;5753;54.402;10.220;2023-04-29T02:48:05;101358.75;;;18.36;42.24
11395;BME280;5753;54.402;10.220;2023-04-29T02:50:32;101368.13;;;18.67;41.59
11395;BME280;5753;54.402;10.220;2023-04-29T02:52:58;101367.28;;;18.59;41.87
11395;BME280;5753;54.402;10.220;2023-04-29T02:55:24;101375.97;;;18.64;41.67
11395;BME280;5753;54.402;10.220;2023-04-29T02:57:51;101367.41;;;18.42;42.70
11395;BME280;5753;54.402;10.220;2023-04-29T03:00:18;101372.91;;;18.07;43.63
11395;BME280;5753;54.402;10.220;2023-04-29T03:02:44;101368.28;;;18.41;43.22
11395;BME280;5753;54.402;10.220;2023-04-29T03:05:10;101379.19;;;17.68;44.79
11395;BME280;5753;54.402;10.220;2023-04-29T03:07:36;101381.34;;;18.46;43.22
11395;BME280;5753;54.402;10.220;2023-04-29T03:10:03;101382.72;;;18.86;42.41
11395;BME280;5753;54.402;10.220;2023-04-29T03:12:29;101380.34;;;18.58;43.14
11395;BME280;5753;54.402;10.220;2023-04-29T03:14:55;101381.13;;;18.70;42.34
11395;BME280;5753;54.402;10.220;2023-04-29T03:17:21;101384.97;;;18.23;43.46
11395;BME280;5753;54.402;10.220;2023-04-29T03:19:48;101383.03;;;18.51;42.57
11395;BME280;5753;54.402;10.220;2023-04-29T03:22:14;101382.56;;;17.88;43.95
11395;BME280;5753;54.402;10.220;2023-04-29T03:24:40;101377.81;;;19.37;40.78
11395;BME280;5753;54.402;10.220;2023-04-29T03:27:06;101379.44;;;18.66;41.69
11395;BME280;5753;54.402;10.220;2023-04-29T03:29:32;101385.31;;;18.93;41.39
11395;BME280;5753;54.402;10.220;2023-04-29T03:31:58;101386.31;;;18.76;41.92
11395;BME280;5753;54.402;10.220;2023-04-29T03:34:24;101390.25;;;18.14;42.65
11395;BME280;5753;54.402;10.220;2023-04-29T03:36:50;101390.09;;;18.36;42.16
11395;BME280;5753;54.402;10.220;2023-04-29T03:39:17;101401.81;;;18.92;41.16
11395;BME280;5753;54.402;10.220;2023-04-29T03:41:43;101400.34;;;19.54;39.91
11395;BME280;5753;54.402;10.220;2023-04-29T03:44:09;101405.50;;;19.58;39.57
11395;BME280;5753;54.402;10.220;2023-04-29T03:46:35;101411.69;;;18.62;41.07
11395;BME280;5753;54.402;10.220;2023-04-29T03:49:01;101414.06;;;17.26;42.91
11395;BME280;5753;54.402;10.220;2023-04-29T03:51:27;101413.50;;;18.49;41.26
11395;BME280;5753;54.402;10.220;2023-04-29T03:53:54;101417.25;;;18.06;42.47
11395;BME280;5753;54.402;10.220;2023-04-29T03:56:24;101415.31;;;18.37;41.75
11395;BME280;5753;54.402;10.220;2023-04-29T03:58:51;101409.44;;;18.07;42.35
11395;BME280;5753;54.402;10.220;2023-04-29T04:01:17;101417.75;;;18.60;41.50
11395;BME280;5753;54.402;10.220;2023-04-29T04:03:44;101423.91;;;19.47;39.86
11395;BME280;5753;54.402;10.220;2023-04-29T04:06:10;101417.84;;;18.49;41.70
11395;BME280;5753;54.402;10.220;2023-04-29T04:08:36;101419.81;;;18.13;41.94
11395;BME280;5753;54.402;10.220;2023-04-29T04:11:02;101420.44;;;19.48;39.76
11395;BME280;5753;54.402;10.220;2023-04-29T04:13:29;101428.56;;;19.19;39.79
11395;BME280;5753;54.402;10.220;2023-04-29T04:15:55;101431.38;;;19.00;40.11
11395;BME280;5753;54.402;10.220;2023-04-29T04:18:22;101429.97;;;18.56;40.55
11395;BME280;5753;54.402;10.220;2023-04-29T04:20:48;101437.25;;;18.08;41.34
11395;BME280;5753;54.402;10.220;2023-04-29T04:23:14;101433.91;;;19.07;40.46
11395;BME280;5753;54.402;10.220;2023-04-29T04:25:47;101436.66;;;18.91;40.55
11395;BME280;5753;54.402;10.220;2023-04-29T04:28:13;101436.13;;;18.49;41.42
11395;BME280;5753;54.402;10.220;2023-04-29T04:30:40;101446.50;;;18.56;41.20
11395;BME280;5753;54.402;10.220;2023-04-29T04:33:06;101440.41;;;18.56;41.31
11395;BME280;5753;54.402;10.220;2023-04-29T04:35:32;101446.78;;;18.14;41.63
11395;BME280;5753;54.402;10.220;2023-04-29T04:37:58;101452.44;;;18.81;40.77
11395;BME280;5753;54.402;10.220;2023-04-29T04:40:25;101453.38;;;19.65;39.47
11395;BME280;5753;54.402;10.220;2023-04-29T04:42:51;101462.19;;;18.55;40.24
11395;BME280;5753;54.402;10.220;2023-04-29T04:45:17;101464.00;;;19.53;38.97
11395;BME280;5753;54.402;10.220;2023-04-29T04:47:43;101459.56;;;18.58;40.06
11395;BME280;5753;54.402;10.220;2023-04-29T04:50:09;101458.78;;;19.48;39.00
11395;BME280;5753;54.402;10.220;2023-04-29T04:52:36;101467.41;;;20.27;37.46
11395;BME280;5753;54.402;10.220;2023-04-29T04:55:02;101462.06;;;19.68;38.75
11395;BME280;5753;54.402;10.220;2023-04-29T04:57:28;101461.28;;;18.65;40.12
11395;BME280;5753;54.402;10.220;2023-04-29T04:59:54;101469.91;;;18.73;40.59
11395;BME280;5753;54.402;10.220;2023-04-29T05:02:20;101469.88;;;18.78;40.26
11395;BME280;5753;54.402;10.220;2023-04-29T05:04:46;101486.16;;;19.09;40.36
11395;BME280;5753;54.402;10.220;2023-04-29T05:07:12;101491.72;;;18.68;41.13
11395;BME280;5753;54.402;10.220;2023-04-29T05:09:38;101494.59;;;19.41;40.19
11395;BME280;5753;54.402;10.220;2023-04-29T05:12:04;101493.63;;;19.48;39.41
11395;BME280;5753;54.402;10.220;2023-04-29T05:14:31;101500.81;;;19.25;39.01
11395;BME280;5753;54.402;10.220;2023-04-29T05:17:00;101503.72;;;18.88;40.42
11395;BME280;5753;54.402;10.220;2023-04-29T05:19:26;101506.38;;;18.84;40.43
11395;BME280;5753;54.402;10.220;2023-04-29T05:21:52;101516.34;;;19.43;39.21
11395;BME280;5753;54.402;10.220;2023-04-29T05:24:18;101507.03;;;19.99;38.75
11395;BME280;5753;54.402;10.220;2023-04-29T05:26:44;101513.28;;;18.96;41.12
11395;BME280;5753;54.402;10.220;2023-04-29T05:29:11;101514.16;;;19.88;40.14
11395;BME280;5753;54.402;10.220;2023-04-29T05:31:37;101512.22;;;20.02;39.49
11395;BME280;5753;54.402;10.220;2023-04-29T05:34:04;101509.56;;;20.07;39.88
11395;BME280;5753;54.402;10.220;2023-04-29T05:36:30;101516.34;;;19.43;40.33
11395;BME280;5753;54.402;10.220;2023-04-29T05:38:56;101517.75;;;19.78;39.64
11395;BME280;5753;54.402;10.220;2023-04-29T05:41:23;101522.97;;;20.50;38.86
11395;BME280;5753;54.402;10.220;2023-04-29T05:43:50;101519.97;;;19.27;40.19
11395;BME280;5753;54.402;10.220;2023-04-29T05:46:16;101518.69;;;19.72;39.75
11395;BME280;5753;54.402;10.220;2023-04-29T05:48:43;101518.75;;;20.40;38.69
11395;BME280;5753;54.402;10.220;2023-04-29T05:51:09;101524.00;;;20.40;38.64
11395;BME280;5753;54.402;10.220;2023-04-29T05:53:35;101523.94;;;21.54;37.37
11395;BME280;5753;54.402;10.220;2023-04-29T05:56:03;101541.66;;;20.20;40.27
11395;BME280;5753;54.402;10.220;2023-04-29T05:58:33;101533.56;;;21.01;39.24
11395;BME280;5753;54.402;10.220;2023-04-29T06:00:59;101538.34;;;20.73;39.22
11395;BME280;5753;54.402;10.220;2023-04-29T06:03:26;101534.28;;;18.80;42.37
11395;BME280;5753;54.402;10.220;2023-04-29T06:05:52;101544.53;;;19.08;42.09
11395;BME280;5753;54.402;10.220;2023-04-29T06:08:19;101550.53;;;19.19;42.34
11395;BME280;5753;54.402;10.220;2023-04-29T06:10:45;101552.94;;;19.46;42.06
11395;BME280;5753;54.402;10.220;2023-04-29T06:13:11;101554.69;;;19.44;41.64
11395;BME280;5753;54.402;10.220;2023-04-29T06:15:37;101561.75;;;20.19;40.79
11395;BME280;5753;54.402;10.220;2023-04-29T06:18:04;101562.56;;;20.23;40.15
11395;BME280;5753;54.402;10.220;2023-04-29T06:20:30;101563.03;;;19.83;40.01
11395;BME280;5753;54.402;10.220;2023-04-29T06:22:56;101567.78;;;20.26;39.70
11395;BME280;5753;54.402;10.220;2023-04-29T06:25:22;101571.63;;;20.68;39.72
11395;BME280;5753;54.402;10.220;2023-04-29T06:27:48;101585.31;;;20.88;39.78
11395;BME280;5753;54.402;10.220;2023-04-29T06:30:15;101571.25;;;20.94;38.57
11395;BME280;5753;54.402;10.220;2023-04-29T06:32:41;101573.63;;;21.09;38.70
11395;BME280;5753;54.402;10.220;2023-04-29T06:35:07;101579.28;;;20.82;38.89
11395;BME280;5753;54.402;10.220;2023-04-29T06:37:34;101582.63;;;20.25;39.99
11395;BME280;5753;54.402;10.220;2023-04-29T06:40:00;101573.53;;;20.55;38.83
11395;BME280;5753;54.402;10.220;2023-04-29T06:42:26;101566.16;;;20.85;39.68
11395;BME280;5753;54.402;10.220;2023-04-29T06:44:53;101580.31;;;21.30;38.03
11395;BME280;5753;54.402;10.220;2023-04-29T06:47:19;101573.69;;;21.04;37.73
11395;BME280;5753;54.402;10.220;2023-04-29T06:49:46;101578.13;;;21.55;37.58
11395;BME280;5753;54.402;10.220;2023-04-29T06:52:12;101583.56;;;20.89;38.38
11395;BME280;5753;54.402;10.220;2023-04-29T06:54:38;101589.94;;;21.80;36.76
11395;BME280;5753;54.402;10.220;2023-04-29T06:57:04;101586.09;;;22.83;35.63
11395;BME280;5753;54.402;10.220;2023-04-29T06:59:31;101590.84;;;21.78;36.62
11395;BME280;5753;54.402;10.220;2023-04-29T07:01:57;101592.94;;;22.90;35.46
11395;BME280;5753;54.402;10.220;2023-04-29T07:04:23;101599.13;;;23.60;34.49
11395;BME280;5753;54.402;10.220;2023-04-29T07:06:53;101594.91;;;23.17;35.17
11395;BME280;5753;54.402;10.220;2023-04-29T07:09:19;101605.41;;;21.46;36.87
11395;BME280;5753;54.402;10.220;2023-04-29T07:11:45;101607.84;;;22.05;35.86
11395;BME280;5753;54.402;10.220;2023-04-29T07:14:11;101611.44;;;20.94;36.96
11395;BME280;5753;54.402;10.220;2023-04-29T07:16:37;101612.72;;;21.78;36.36
11395;BME280;5753;54.402;10.220;2023-04-29T07:19:03;101607.97;;;22.43;35.72
11395;BME280;5753;54.402;10.220;2023-04-29T07:21:29;101609.09;;;22.32;35.89
11395;BME280;5753;54.402;10.220;2023-04-29T07:23:56;101617.41;;;22.93;35.72
11395;BME280;5753;54.402;10.220;2023-04-29T07:26:24;101621.28;;;23.50;34.92
11395;BME280;5753;54.402;10.220;2023-04-29T07:28:50;101618.38;;;22.89;35.50
11395;BME280;5753;54.402;10.220;2023-04-29T07:31:16;101623.03;;;22.77;35.67
11395;BME280;5753;54.402;10.220;2023-04-29T07:33:44;101629.41;;;23.05;35.26
11395;BME280;5753;54.402;10.220;2023-04-29T07:36:11;101625.84;;;23.43;34.50
11395;BME280;5753;54.402;10.220;2023-04-29T07:38:37;101632.75;;;22.30;35.79
11395;BME280;5753;54.402;10.220;2023-04-29T07:41:04;101637.44;;;22.57;34.99
11395;BME280;5753;54.402;10.220;2023-04-29T07:43:30;101628.53;;;22.21;35.72
11395;BME280;5753;54.402;10.220;2023-04-29T07:45:56;101635.03;;;22.00;36.23
11395;BME280;5753;54.402;10.220;2023-04-29T07:48:22;101631.22;;;22.61;35.36
11395;BME280;5753;54.402;10.220;2023-04-29T07:50:48;101638.16;;;23.43;34.00
11395;BME280;5753;54.402;10.220;2023-04-29T07:53:15;101640.06;;;22.99;35.11
11395;BME280;5753;54.402;10.220;2023-04-29T07:55:42;101632.28;;;23.32;34.98
11395;BME280;5753;54.402;10.220;2023-04-29T07:58:08;101640.53;;;24.20;34.23
11395;BME280;5753;54.402;10.220;2023-04-29T08:00:35;101636.06;;;25.14;32.35
11395;BME280;5753;54.402;10.220;2023-04-29T08:03:01;101643.31;;;24.46;33.09
11395;BME280;5753;54.402;10.220;2023-04-29T08:05:27;101643.97;;;23.91;33.14
11395;BME280;5753;54.402;10.220;2023-04-29T08:07:55;101648.91;;;22.53;34.29
11395;BME280;5753;54.402;10.220;2023-04-29T08:10:21;101649.56;;;23.05;33.67
11395;BME280;5753;54.402;10.220;2023-04-29T08:12:48;101657.94;;;23.59;33.00
11395;BME280;5753;54.402;10.220;2023-04-29T08:15:14;101652.16;;;22.65;33.61
11395;BME280;5753;54.402;10.220;2023-04-29T08:17:40;101661.53;;;23.19;32.70
11395;BME280;5753;54.402;10.220;2023-04-29T08:20:07;101661.53;;;23.19;33.32
11395;BME280;5753;54.402;10.220;2023-04-29T08:22:34;101664.91;;;23.96;32.08
11395;BME280;5753;54.402;10.220;2023-04-29T08:25:00;101663.94;;;23.29;32.77
11395;BME280;5753;54.402;10.220;2023-04-29T08:27:28;101665.44;;;23.39;33.43
11395;BME280;5753;54.402;10.220;2023-04-29T08:29:54;101668.44;;;23.95;32.59
11395;BME280;5753;54.402;10.220;2023-04-29T08:32:21;101665.72;;;24.63;30.66
11395;BME280;5753;54.402;10.220;2023-04-29T08:34:47;101673.56;;;22.91;33.08
11395;BME280;5753;54.402;10.220;2023-04-29T08:37:13;101676.41;;;22.79;33.15
11395;BME280;5753;54.402;10.220;2023-04-29T08:39:40;101671.84;;;23.66;32.14
11395;BME280;5753;54.402;10.220;2023-04-29T08:42:11;101676.66;;;23.82;31.09
11395;BME280;5753;54.402;10.220;2023-04-29T08:44:38;101685.25;;;23.16;31.42
11395;BME280;5753;54.402;10.220;2023-04-29T08:47:05;101694.34;;;24.75;30.99
11395;BME280;5753;54.402;10.220;2023-04-29T08:49:32;101690.63;;;25.67;30.28
11395;BME280;5753;54.402;10.220;2023-04-29T08:51:59;101687.72;;;23.61;32.11
11395;BME280;5753;54.402;10.220;2023-04-29T08:54:25;101696.03;;;23.04;32.89
11395;BME280;5753;54.402;10.220;2023-04-29T08:56:53;101687.63;;;23.64;32.98
11395;BME280;5753;54.402;10.220;2023-04-29T08:59:20;101698.97;;;23.31;32.29
11395;BME280;5753;54.402;10.220;2023-04-29T09:01:48;101695.06;;;23.47;31.91
11395;BME280;5753;54.402;10.220;2023-04-29T09:04:47;101700.31;;;23.47;32.53
11395;BME280;5753;54.402;10.220;2023-04-29T09:07:17;101690.06;;;24.71;31.24
11395;BME280;5753;54.402;10.220;2023-04-29T09:09:44;101695.34;;;25.30;29.94
11395;BME280;5753;54.402;10.220;2023-04-29T09:12:11;101696.91;;;25.63;30.55
11395;BME280;5753;54.402;10.220;2023-04-29T09:14:37;101702.44;;;25.28;30.01
11395;BME280;5753;54.402;10.220;2023-04-29T09:17:03;101705.81;;;23.38;32.40
11395;BME280;5753;54.402;10.220;2023-04-29T09:19:34;101705.97;;;24.03;32.27
11395;BME280;5753;54.402;10.220;2023-04-29T09:22:02;101707.09;;;24.28;32.59
11395;BME280;5753;54.402;10.220;2023-04-29T09:24:30;101702.84;;;23.13;32.81
11395;BME280;5753;54.402;10.220;2023-04-29T09:26:58;101711.09;;;22.53;34.04
11395;BME280;5753;54.402;10.220;2023-04-29T09:29:24;101709.31;;;22.09;34.87
11395;BME280;5753;54.402;10.220;2023-04-29T09:31:51;101699.69;;;22.99;32.80
11395;BME280;5753;54.402;10.220;2023-04-29T09:34:34;101706.78;;;23.34;33.42
11395;BME280;5753;54.402;10.220;2023-04-29T09:37:23;101704.84;;;24.13;32.25
11395;BME280;5753;54.402;10.220;2023-04-29T09:39:49;101710.69;;;24.24;31.94
11395;BME280;5753;54.402;10.220;2023-04-29T09:42:15;101709.22;;;24.14;31.22
11395;BME280;5753;54.402;10.220;2023-04-29T09:44:42;101712.75;;;24.76;30.77
11395;BME280;5753;54.402;10.220;2023-04-29T09:47:09;101714.25;;;24.85;31.09
11395;BME280;5753;54.402;10.220;2023-04-29T09:49:41;101711.69;;;24.53;31.29
11395;BME280;5753;54.402;10.220;2023-04-29T09:52:13;101721.84;;;24.35;31.15
11395;BME280;5753;54.402;10.220;2023-04-29T09:54:41;101722.28;;;23.07;33.16
11395;BME280;5753;54.402;10.220;2023-04-29T09:57:08;101705.25;;;23.62;31.62
11395;BME280;5753;54.402;10.220;2023-04-29T09:59:37;101716.03;;;25.16;31.80
11395;BME280;5753;54.402;10.220;2023-04-29T10:02:22;101717.69;;;25.74;30.69
11395;BME280;5753;54.402;10.220;2023-04-29T10:04:54;101708.31;;;25.09;31.52
11395;BME280;5753;54.402;10.220;2023-04-29T10:07:22;101716.38;;;24.41;32.00
11395;BME280;5753;54.402;10.220;2023-04-29T10:09:51;101716.53;;;24.68;30.91
11395;BME280;5753;54.402;10.220;2023-04-29T10:12:18;101713.25;;;24.60;31.69
11395;BME280;5753;54.402;10.220;2023-04-29T10:14:56;101714.91;;;25.23;30.18
11395;BME280;5753;54.402;10.220;2023-04-29T10:17:46;101721.66;;;24.07;32.37
11395;BME280;5753;54.402;10.220;2023-04-29T10:20:20;101716.19;;;25.37;30.95
11395;BME280;5753;54.402;10.220;2023-04-29T10:22:48;101714.91;;;25.23;30.20
11395;BME280;5753;54.402;10.220;2023-04-29T10:25:24;101712.06;;;24.05;32.18
11395;BME280;5753;54.402;10.220;2023-04-29T10:27:52;101718.22;;;25.57;29.32
11395;BME280;5753;54.402;10.220;2023-04-29T10:30:20;101713.59;;;26.17;28.87
11395;BME280;5753;54.402;10.220;2023-04-29T10:32:48;101719.16;;;24.97;29.77
11395;BME280;5753;54.402;10.220;2023-04-29T10:35:15;101717.78;;;24.55;30.57
11395;BME280;5753;54.402;10.220;2023-04-29T10:37:45;101716.66;;;25.24;29.14
11395;BME280;5753;54.402;10.220;2023-04-29T10:40:17;101712.09;;;24.99;29.32
11395;BME280;5753;54.402;10.220;2023-04-29T10:42:54;101715.06;;;25.18;29.20
11395;BME280;5753;54.402;10.220;2023-04-29T10:45:33;101712.34;;;26.02;28.07
11395;BME280;5753;54.402;10.220;2023-04-29T10:53:17;101719.91;;;26.38;27.13
11395;BME280;5753;54.402;10.220;2023-04-29T10:55:55;101718.16;;;27.53;24.59
11395;BME280;5753;54.402;10.220;2023-04-29T10:58:43;101707.13;;;28.47;24.91
11395;BME280;5753;54.402;10.220;2023-04-29T11:01:14;101707.44;;;27.78;25.29
11395;BME280;5753;54.402;10.220;2023-04-29T11:03:56;101715.03;;;28.28;24.09
11395;BME280;5753;54.402;10.220;2023-04-29T11:06:38;101706.31;;;27.84;24.78
11395;BME280;5753;54.402;10.220;2023-04-29T11:14:41;101702.34;;;29.30;23.26
11395;BME280;5753;54.402;10.220;2023-04-29T11:17:11;101698.41;;;28.82;24.40
11395;BME280;5753;54.402;10.220;2023-04-29T11:19:42;101707.16;;;29.41;23.20
11395;BME280;5753;54.402;10.220;2023-04-29T11:24:50;101705.22;;;27.68;24.54
11395;BME280;5753;54.402;10.220;2023-04-29T11:27:18;101709.22;;;28.18;24.21
11395;BME280;5753;54.402;10.220;2023-04-29T11:29:50;101711.94;;;28.97;22.76
11395;BME280;5753;54.402;10.220;2023-04-29T11:32:20;101716.94;;;28.25;24.58
11395;BME280;5753;54.402;10.220;2023-04-29T11:34:47;101717.63;;;26.27;25.65
11395;BME280;5753;54.402;10.220;2023-04-29T11:37:23;101725.41;;;26.31;25.91
11395;BME280;5753;54.402;10.220;2023-04-29T11:39:49;101720.53;;;25.40;26.25
11395;BME280;5753;54.402;10.220;2023-04-29T11:42:22;101722.13;;;25.18;27.30
11395;BME280;5753;54.402;10.220;2023-04-29T11:44:51;101729.56;;;24.41;29.26
11395;BME280;5753;54.402;10.220;2023-04-29T11:47:18;101726.19;;;24.98;29.33
11395;BME280;5753;54.402;10.220;2023-04-29T11:49:46;101738.81;;;24.87;29.78
11395;BME280;5753;54.402;10.220;2023-04-29T11:52:12;101729.66;;;27.09;27.83
11395;BME280;5753;54.402;10.220;2023-04-29T11:54:39;101733.72;;;26.21;26.69
11395;BME280;5753;54.402;10.220;2023-04-29T11:57:06;101724.13;;;25.92;26.82
11395;BME280;5753;54.402;10.220;2023-04-29T11:59:32;101725.94;;;26.16;27.61
11395;BME280;5753;54.402;10.220;2023-04-29T12:01:58;101736.09;;;27.02;26.69
11395;BME280;5753;54.402;10.220;2023-04-29T12:04:25;101728.44;;;26.21;26.90
11395;BME280;5753;54.402;10.220;2023-04-29T12:06:52;101729.31;;;25.40;27.54
11395;BME280;5753;54.402;10.220;2023-04-29T12:09:18;101731.13;;;26.19;26.75
11395;BME280;5753;54.402;10.220;2023-04-29T12:11:45;101732.44;;;27.93;24.78
11395;BME280;5753;54.402;10.220;2023-04-29T12:14:15;101734.09;;;26.83;24.88
11395;BME280;5753;54.402;10.220;2023-04-29T12:16:41;101737.75;;;25.52;25.03
11395;BME280;5753;54.402;10.220;2023-04-29T12:19:08;101741.50;;;25.17;26.01
11395;BME280;5753;54.402;10.220;2023-04-29T12:21:35;101730.28;;;27.81;23.33
11395;BME280;5753;54.402;10.220;2023-04-29T12:24:02;101739.88;;;26.46;23.91
11395;BME280;5753;54.402;10.220;2023-04-29T12:26:30;101736.44;;;27.59;23.35
11395;BME280;5753;54.402;10.220;2023-04-29T12:28:59;101742.41;;;28.29;23.16
11395;BME280;5753;54.402;10.220;2023-04-29T12:31:32;101736.44;;;27.16;23.96
11395;BME280;5753;54.402;10.220;2023-04-29T12:33:59;101748.94;;;28.20;22.89
11395;BME280;5753;54.402;10.220;2023-04-29T12:36:26;101752.03;;;30.00;21.39
11395;BME280;5753;54.402;10.220;2023-04-29T12:38:53;101751.75;;;30.06;22.44
11395;BME280;5753;54.402;10.220;2023-04-29T12:41:35;101747.94;;;28.63;22.54
11395;BME280;5753;54.402;10.220;2023-04-29T12:44:02;101756.75;;;26.17;25.10
11395;BME280;5753;54.402;10.220;2023-04-29T12:46:34;101762.09;;;25.61;26.13
11395;BME280;5753;54.402;10.220;2023-04-29T12:49:02;101755.25;;;26.35;25.10
11395;BME280;5753;54.402;10.220;2023-04-29T12:51:30;101758.63;;;26.14;25.42
11395;BME280;5753;54.402;10.220;2023-04-29T12:54:01;101760.53;;;24.66;26.59
11395;BME280;5753;54.402;10.220;2023-04-29T12:56:29;101747.72;;;25.42;26.18
11395;BME280;5753;54.402;10.220;2023-04-29T12:58:56;101749.13;;;27.95;24.84
11395;BME280;5753;54.402;10.220;2023-04-29T13:01:23;101748.03;;;29.01;23.45
11395;BME280;5753;54.402;10.220;2023-04-29T13:03:49;101762.13;;;26.14;25.36
11395;BME280;5753;54.402;10.220;2023-04-29T13:06:16;101764.22;;;26.04;25.63
11395;BME280;5753;54.402;10.220;2023-04-29T13:08:42;101757.28;;;27.02;25.56
11395;BME280;5753;54.402;10.220;2023-04-29T13:11:09;101766.03;;;27.49;24.41
11395;BME280;5753;54.402;10.220;2023-04-29T13:13:35;101767.28;;;26.44;26.54
11395;BME280;5753;54.402;10.220;2023-04-29T13:16:01;101763.16;;;24.33;28.82
11395;BME280;5753;54.402;10.220;2023-04-29T13:18:27;101764.28;;;25.77;26.53
11395;BME280;5753;54.402;10.220;2023-04-29T13:20:53;101764.50;;;28.07;23.71